Time;durP1;ratioP1;P1;durP2;ratioP2;P2;SDS_P1;SDS_P2;PMS_P1;PMS_P2;Temp;Humidity;BMP_temperature;BMP_pressure;BME280_temperature;BME280_humidity;BME280_pressure;Samples;Min_cycle;Max_cycle;Signal;HPM_P1;HPM_P2
2021/10/06 00:00:43;;;;;;;23.47;15.53;;;;;;;17.12;89.65;100043.73;21160490;81;99897;-83
2021/10/06 00:30:44;;;;;;;22.77;14.20;;;;;;;17.01;88.97;100099.55;21110277;81;100322;-83
2021/10/06 01:00:45;;;;;;;22.77;14.00;;;;;;;16.83;87.66;100081.66;21095377;80;100085;-84
2021/10/06 01:30:46;;;;;;;13.72;8.83;;;;;;;16.43;88.33;100146.13;21165126;81;99741;-84
2021/10/06 02:00:48;;;;;;;;;;;;;;;15.53;89.09;100190.66;21132965;81;99558;-83
2021/10/06 02:30:49;;;;;;;11.23;7.63;;;;;;;15.39;89.84;100165.89;21140735;81;85539;-84
2021/10/06 03:00:50;;;;;;;12.57;8.33;;;;;;;15.30;88.17;100179.44;21096178;80;1771155;-84
2021/10/06 03:30:51;;;;;;;14.85;10.08;;;;;;;15.23;88.50;100216.16;21244640;81;99636;-84
2021/10/06 04:00:52;;;;;;;17.05;10.48;;;;;;;14.89;89.28;100232.73;21231231;81;99926;-85
2021/10/06 04:30:55;;;;;;;16.62;11.00;;;;;;;14.89;89.62;100254.89;21186154;81;99729;-85
2021/10/06 05:00:56;;;;;;;19.17;12.13;;;;;;;14.90;90.36;100270.94;21219798;80;99561;-84
2021/10/06 05:30:57;;;;;;;20.97;13.88;;;;;;;14.85;91.28;100320.66;21176150;80;99774;-81
2021/10/06 06:00:58;;;;;;;23.00;14.47;;;;;;;14.85;91.42;100356.69;21151223;80;99821;-81
2021/10/06 06:30:59;;;;;;;21.57;14.05;;;;;;;14.97;91.10;100391.41;21131177;81;99954;-82
2021/10/06 07:01:00;;;;;;;20.07;12.73;;;;;;;14.90;92.08;100441.36;21118954;81;100025;-83
2021/10/06 07:31:01;;;;;;;;;;;;;;;14.97;93.02;100462.89;21131992;81;99831;-82
2021/10/06 08:01:03;;;;;;;26.25;14.20;;;;;;;15.28;93.75;100502.09;21172286;81;85322;-85
2021/10/06 08:31:04;;;;;;;18.97;12.67;;;;;;;15.42;92.85;100529.75;21481671;80;99863;-84
2021/10/06 09:01:05;;;;;;;22.82;13.15;;;;;;;15.71;92.70;100552.53;21464273;80;99760;-84
2021/10/06 09:31:13;;;;;;;19.12;12.85;;;;;;;16.19;92.48;100572.13;21184096;81;100018;-85
2021/10/06 10:01:15;;;;;;;17.67;14.20;;;;;;;16.86;90.22;100589.51;21222597;81;99997;-85
2021/10/06 10:31:18;;;;;;;12.37;10.07;;;;;;;16.95;88.11;100623.94;21166606;80;99752;-90
2021/10/06 11:01:23;;;;;;;17.57;11.30;;;;;;;16.84;87.71;100681.66;21144225;80;99599;-85
2021/10/06 11:31:30;;;;;;;12.87;10.17;;;;;;;16.70;87.25;100717.14;21156545;82;99591;-84
2021/10/06 12:01:31;;;;;;;16.47;11.90;;;;;;;16.71;86.83;100727.85;21126423;82;99568;-84
2021/10/06 12:31:36;;;;;;;12.67;9.40;;;;;;;16.99;86.10;100749.83;21139889;80;99653;-84
2021/10/06 13:01:41;;;;;;;15.97;10.83;;;;;;;17.47;85.00;100774.18;21158680;80;99484;-84
2021/10/06 13:31:42;;;;;;;14.33;9.27;;;;;;;17.41;83.14;100783.39;21502668;80;99591;-83
2021/10/06 14:01:43;;;;;;;7.85;5.22;;;;;;;17.45;82.82;100811.97;21529900;80;99517;-83
2021/10/06 14:31:46;;;;;;;7.47;4.35;;;;;;;17.25;82.40;100827.05;21325649;81;99313;-84
2021/10/06 15:01:47;;;;;;;8.43;5.45;;;;;;;17.56;82.33;100851.61;21301793;80;99899;-84
2021/10/06 15:31:48;;;;;;;9.57;7.13;;;;;;;17.71;79.78;100878.10;21253076;82;99236;-83
2021/10/06 16:01:52;;;;;;;12.20;6.72;;;;;;;17.45;80.26;100905.97;21305915;81;99425;-83
2021/10/06 16:31:52;;;;;;;17.37;9.80;;;;;;;17.01;81.12;100928.16;21248828;80;99439;-84
2021/10/06 17:01:56;;;;;;;15.93;12.30;;;;;;;16.43;82.60;100965.64;21224163;81;99765;-84
2021/10/06 17:31:56;;;;;;;15.33;10.10;;;;;;;16.06;84.20;101008.95;21173401;80;1876255;-81
2021/10/06 18:01:57;;;;;;;;;;;;;;;15.74;85.13;101004.05;21192918;81;100313;-81
2021/10/06 18:32:00;;;;;;;15.32;11.00;;;;;;;15.51;86.68;101035.56;21243795;80;86211;-81
2021/10/06 19:02:03;;;;;;;15.17;11.10;;;;;;;15.32;87.09;101075.52;21287038;80;99753;-81
2021/10/06 19:32:05;;;;;;;14.53;11.47;;;;;;;15.16;88.06;101088.95;21350333;81;99850;-82
2021/10/06 20:02:07;;;;;;;17.65;13.50;;;;;;;14.95;88.62;101118.02;21319597;81;99943;-82
2021/10/06 20:32:08;;;;;;;34.87;24.90;;;;;;;14.78;89.49;101136.70;21171192;80;99968;-82
2021/10/06 21:02:09;;;;;;;21.64;15.02;;;;;;;14.52;89.76;101146.67;21120030;82;110648;-80
2021/10/06 21:32:10;;;;;;;19.50;13.73;;;;;;;14.31;90.38;101158.98;21116172;82;100001;-83
2021/10/06 22:02:11;;;;;;;17.07;10.40;;;;;;;14.23;90.95;101171.16;21092387;81;100020;-83
2021/10/06 22:32:11;;;;;;;25.83;19.30;;;;;;;14.30;91.38;101188.44;21240060;80;100244;-86
2021/10/06 23:02:12;;;;;;;26.40;18.27;;;;;;;14.32;91.30;101201.30;21294651;81;99969;-85
2021/10/06 23:32:14;;;;;;;28.95;22.07;;;;;;;14.24;91.67;101230.92;21269421;81;100350;-84
